6 a 13/2 - Fresco y luego T normales centro (calor seco N, incendios), T variables Patagonia. Lluvias NOA y luego O/C.

Avatar de Usuario
Diecha
Mensajes: 20023
Registrado: Jue Ago 25, 2011 9:31 pm
Ubicación: Lomas de Zamora

Re: 6 a 13/2 - Fresco y luego T normales centro (calor seco N, incendios), T variables Patagonia. Lluvias NOA y luego O/

Mensaje por Diecha »



- Río Grande 13 hs: SAWE 131600Z 27054G71KT 9000 SCT020 14/M00 Q0986 (ráfaga de 131 Km/h)
- Río Grande 14 hs: SAWE 131700Z 25049G64KT 9000 FEW020 13/04 Q0988 (ráfaga de 119 Km/h)
- Río Grande 15 hs: SAWG 131800Z 23045G64KT 9999 FEW035 15/M08 Q1004 (ráfaga de 119 Km/h)
- Río Grande 16 hs: SAWG 131900Z 23045G60KT 9999 VCDU FEW035 15/M07 Q1004 (ráfaga de 111 Km/h)
Avatar de Usuario
Ezequiel1995
Mensajes: 2794
Registrado: Mar Nov 12, 2019 4:50 pm
Ubicación: Merlo, Buenos Aires

Re: 6 a 13/2 - Fresco y luego T normales centro (calor seco N, incendios), T variables Patagonia. Lluvias NOA y luego O/

Mensaje por Ezequiel1995 »

¿Estás amplitudes térmicas no se están haciendo cada vez más comunes en el este de la PBA?
Merlo, Provincia de Buenos Aires
⎯⎯⎯⎯⎯⎯⎯⎯⎯⎯⎯⎯⎯⎯⎯⎯⎯⎯⎯⎯⎯⎯⎯⎯⎯⎯⎯⎯⎯⎯⎯⎯
Aplicación Gustfront! 2.5
Danywilde
Mensajes: 3271
Registrado: Mar Ene 24, 2012 1:41 pm
Ubicación: Wilde, Buenos Aires

Re: 6 a 13/2 - Fresco y luego T normales centro (calor seco N, incendios), T variables Patagonia. Lluvias NOA y luego O/

Mensaje por Danywilde »

Ezequiel1995 escribió: Dom Feb 13, 2022 5:02 pm ¿Estás amplitudes térmicas no se están haciendo cada vez más comunes en el este de la PBA?
Estimo que saltaría en las estadísticas como dato relevante... Viene del período Niña, con menos carga de humedad en la atmósfera y los vientos continentales que son el factor determinante.
Avatar de Usuario
Santiago Linari
Mensajes: 9689
Registrado: Sab Dic 29, 2012 4:28 pm
Ubicación: Challao, Mendoza

Re: 6 a 13/2 - Fresco y luego T normales centro (calor seco N, incendios), T variables Patagonia. Lluvias NOA y luego O/

Mensaje por Santiago Linari »

Hermoso día en Chacras.
Se siente mucho más fresco que los 29,9°C del Aero.

Bien seco también. En el Aero es del 25% (td 7,8°C).
Ayer vi que había bajado a 2°C, el valor más bajo que veo en lo que va del año.
¡Oops!

Algo salió mal
Avatar de Usuario
Ale de Castelar
Mensajes: 32509
Registrado: Sab Mar 03, 2012 12:25 pm
Ubicación: Caballito

Re: 6 a 13/2 - Fresco y luego T normales centro (calor seco N, incendios), T variables Patagonia. Lluvias NOA y luego O/

Mensaje por Ale de Castelar »

Ushuaia

Avatar de Usuario
Ezequiel1995
Mensajes: 2794
Registrado: Mar Nov 12, 2019 4:50 pm
Ubicación: Merlo, Buenos Aires

Re: 6 a 13/2 - Fresco y luego T normales centro (calor seco N, incendios), T variables Patagonia. Lluvias NOA y luego O/

Mensaje por Ezequiel1995 »

Danywilde escribió: Dom Feb 13, 2022 5:40 pm
Ezequiel1995 escribió: Dom Feb 13, 2022 5:02 pm ¿Estás amplitudes térmicas no se están haciendo cada vez más comunes en el este de la PBA?
Estimo que saltaría en las estadísticas como dato relevante... Viene del período Niña, con menos carga de humedad en la atmósfera y los vientos continentales que son el factor determinante.
Claro, ni pensé en las estadísticas jaja. Tenes razón, gracias por responder.

ON: Linda noche, templada
Merlo, Provincia de Buenos Aires
⎯⎯⎯⎯⎯⎯⎯⎯⎯⎯⎯⎯⎯⎯⎯⎯⎯⎯⎯⎯⎯⎯⎯⎯⎯⎯⎯⎯⎯⎯⎯⎯
Aplicación Gustfront! 2.5
Avatar de Usuario
Ernest
Mensajes: 16132
Registrado: Vie Jul 17, 2009 10:54 pm
Ubicación: Balvanera, CABA

Re: 6 a 13/2 - Fresco y luego T normales centro (calor seco N, incendios), T variables Patagonia. Lluvias NOA y luego O/

Mensaje por Ernest »

T 23,6 - Td 7,1 (HR 35 %) a las 21 en mi psicrómetro de ventana. La máxima fue de 26 grados o poco más.
Did you want to talk about the weather, or were you just making chitchat?

Twitter: @ErnestoAtmoII
Avatar de Usuario
Ale de Castelar
Mensajes: 32509
Registrado: Sab Mar 03, 2012 12:25 pm
Ubicación: Caballito

Re: 6 a 13/2 - Fresco y luego T normales centro (calor seco N, incendios), T variables Patagonia. Lluvias NOA y luego O/

Mensaje por Ale de Castelar »

Ushuaia nevando



Avatar de Usuario
Diecha
Mensajes: 20023
Registrado: Jue Ago 25, 2011 9:31 pm
Ubicación: Lomas de Zamora

Re: 6 a 13/2 - Fresco y luego T normales centro (calor seco N, incendios), T variables Patagonia. Lluvias NOA y luego O/

Mensaje por Diecha »

Avatar de Usuario
Ale de Castelar
Mensajes: 32509
Registrado: Sab Mar 03, 2012 12:25 pm
Ubicación: Caballito

Re: 6 a 13/2 - Fresco y luego T normales centro (calor seco N, incendios), T variables Patagonia. Lluvias NOA y luego O/

Mensaje por Ale de Castelar »

Humo en SMDLA